createdAt,value
2019-01-29T00:00:42.827Z,7.42
2019-01-29T00:03:39.644Z,7.53
2019-01-29T00:06:41.529Z,3.90
2019-01-29T00:09:44.609Z,8.07
2019-01-29T00:12:45.280Z,4.50
2019-01-29T00:15:51.084Z,5.20
2019-01-29T00:18:53.930Z,6.60
2019-01-29T00:21:49.001Z,5.60
2019-01-29T00:24:44.864Z,6.00
2019-01-29T00:27:41.470Z,5.87
2019-01-29T00:30:39.382Z,5.00
2019-01-29T00:33:37.011Z,5.42
2019-01-29T00:36:33.760Z,5.97
2019-01-29T00:39:31.306Z,10.77
2019-01-29T00:42:33.936Z,6.10
2019-01-29T00:45:30.017Z,6.57
2019-01-29T00:48:27.052Z,6.40
2019-01-29T00:51:30.811Z,10.60
2019-01-29T00:54:27.469Z,5.10
2019-01-29T00:57:24.074Z,6.70
2019-01-29T01:00:20.685Z,8.43
2019-01-29T01:03:15.371Z,9.30
2019-01-29T01:06:13.223Z,8.30
2019-01-29T01:09:08.520Z,5.40
2019-01-29T01:12:05.075Z,4.70
2019-01-29T01:15:00.838Z,6.97
2019-01-29T01:18:05.826Z,8.37
2019-01-29T01:21:09.780Z,7.47
2019-01-29T01:24:05.552Z,9.20
2019-01-29T01:27:02.706Z,5.40
2019-01-29T01:29:58.136Z,8.33
2019-01-29T01:32:58.267Z,5.25
2019-01-29T01:35:55.494Z,5.70
2019-01-29T01:38:51.040Z,12.53
2019-01-29T01:41:47.632Z,6.23
2019-01-29T01:44:43.276Z,6.70
2019-01-29T01:47:40.980Z,7.72
2019-01-29T01:50:38.720Z,3.70
2019-01-29T01:53:34.504Z,5.93
2019-01-29T01:56:30.956Z,8.27
2019-01-29T01:59:26.484Z,7.20
2019-01-29T02:02:23.100Z,6.20
2019-01-29T02:05:17.782Z,9.00
2019-01-29T02:08:14.138Z,5.90
2019-01-29T02:11:10.818Z,6.40
2019-01-29T02:14:06.503Z,5.13
2019-01-29T02:17:03.163Z,5.07
2019-01-29T02:19:58.560Z,6.53
2019-01-29T02:23:07.890Z,4.15
2019-01-29T02:26:15.662Z,7.00
2019-01-29T02:29:31.078Z,6.20
2019-01-29T02:32:28.766Z,6.03
2019-01-29T02:35:24.962Z,8.63
2019-01-29T02:38:22.336Z,6.63
2019-01-29T02:41:18.104Z,3.73
2019-01-29T02:44:14.796Z,5.73
2019-01-29T02:47:10.447Z,3.23
2019-01-29T02:50:06.908Z,7.27
2019-01-29T02:53:02.426Z,5.95
2019-01-29T02:55:59.196Z,5.15
2019-01-29T02:59:03.141Z,4.83
2019-01-29T03:01:58.924Z,6.55
2019-01-29T03:04:55.648Z,4.45
2019-01-29T03:07:51.240Z,4.60
2019-01-29T03:10:47.402Z,7.97
2019-01-29T03:13:43.920Z,5.43
2019-01-29T03:16:39.478Z,5.50
2019-01-29T03:19:37.268Z,5.13
2019-01-29T03:22:33.038Z,4.78
2019-01-29T03:25:29.258Z,6.20
2019-01-29T03:28:29.531Z,7.00
2019-01-29T03:31:32.955Z,5.30
2019-01-29T03:34:36.466Z,7.20
2019-01-29T03:37:34.360Z,6.37
2019-01-29T03:40:30.894Z,9.40
2019-01-29T03:43:27.699Z,5.53
2019-01-29T03:46:24.465Z,10.40
2019-01-29T03:49:19.984Z,5.60
2019-01-29T03:52:17.576Z,8.03
2019-01-29T03:55:13.108Z,5.83
2019-01-29T03:58:09.744Z,8.77
2019-01-29T04:01:05.340Z,4.60
2019-01-29T04:04:01.751Z,6.17
2019-01-29T04:06:56.758Z,9.53
2019-01-29T04:09:54.344Z,9.13
2019-01-29T04:12:49.082Z,9.20
2019-01-29T04:15:45.878Z,6.43
2019-01-29T04:18:42.612Z,4.23
2019-01-29T04:21:38.186Z,7.20
2019-01-29T04:24:34.855Z,7.93
2019-01-29T04:27:30.595Z,5.07
2019-01-29T04:30:27.980Z,8.43
2019-01-29T04:33:24.714Z,5.83
2019-01-29T04:36:28.081Z,9.10
2019-01-29T04:39:36.356Z,6.47
2019-01-29T04:42:33.010Z,6.30
2019-01-29T04:45:29.312Z,7.10
2019-01-29T04:48:25.812Z,8.23
2019-01-29T04:51:22.390Z,10.13
2019-01-29T04:54:17.288Z,8.90
2019-01-29T04:57:14.087Z,6.10
2019-01-29T05:00:10.654Z,8.57
2019-01-29T05:03:07.428Z,6.67
2019-01-29T05:06:09.106Z,8.13
2019-01-29T05:09:06.735Z,6.05
2019-01-29T05:12:03.374Z,12.20
2019-01-29T05:14:58.744Z,5.47
2019-01-29T05:17:55.079Z,5.77
2019-01-29T05:20:51.886Z,8.20
2019-01-29T05:23:47.622Z,13.87
2019-01-29T05:26:43.365Z,5.23
2019-01-29T05:29:40.171Z,8.60
2019-01-29T05:32:36.808Z,8.75
2019-01-29T05:35:34.432Z,7.90
2019-01-29T05:38:32.245Z,8.73
2019-01-29T05:41:40.071Z,9.70
2019-01-29T05:44:42.728Z,6.97
2019-01-29T05:47:38.328Z,8.07
2019-01-29T05:50:34.996Z,9.83
2019-01-29T05:53:30.400Z,9.48
2019-01-29T05:56:27.222Z,7.37
2019-01-29T05:59:28.364Z,7.03
2019-01-29T06:02:25.224Z,7.43
2019-01-29T06:05:20.898Z,7.87
2019-01-29T06:08:16.660Z,13.40
2019-01-29T06:11:14.248Z,9.20
2019-01-29T06:14:10.824Z,11.00
2019-01-29T06:17:06.602Z,6.63
2019-01-29T06:20:03.087Z,14.10
2019-01-29T06:22:58.303Z,8.13
2019-01-29T06:25:54.836Z,10.47
2019-01-29T06:28:50.204Z,8.70
2019-01-29T06:31:47.724Z,12.20
2019-01-29T06:34:49.446Z,12.13
2019-01-29T06:37:46.676Z,8.27
2019-01-29T06:40:43.302Z,14.20
2019-01-29T06:43:40.874Z,19.07
2019-01-29T06:46:41.373Z,10.75
2019-01-29T06:49:37.907Z,11.60
2019-01-29T06:52:44.757Z,9.30
2019-01-29T06:55:53.235Z,10.30
2019-01-29T06:58:54.684Z,7.50
2019-01-29T07:01:52.036Z,10.23
2019-01-29T07:04:51.121Z,11.03
2019-01-29T07:07:46.890Z,10.67
2019-01-29T07:10:44.266Z,9.23
2019-01-29T07:13:48.071Z,7.13
2019-01-29T07:16:58.477Z,7.17
2019-01-29T07:19:56.733Z,7.70
2019-01-29T07:22:53.596Z,10.20
2019-01-29T07:25:48.681Z,10.07
2019-01-29T07:28:45.473Z,10.70
2019-01-29T07:31:41.788Z,19.30
2019-01-29T07:34:38.460Z,7.57
2019-01-29T07:37:34.676Z,6.73
2019-01-29T07:40:29.957Z,9.53
2019-01-29T07:43:27.107Z,10.18
2019-01-29T07:46:29.384Z,9.77
2019-01-29T07:49:31.197Z,10.43
2019-01-29T07:52:27.635Z,13.03
2019-01-29T07:55:24.499Z,10.70
2019-01-29T07:58:21.612Z,7.78
2019-01-29T08:01:18.155Z,9.27
2019-01-29T08:04:15.582Z,6.90
2019-01-29T08:07:14.937Z,11.13
2019-01-29T08:10:11.517Z,9.93
2019-01-29T08:13:09.315Z,17.30
2019-01-29T08:16:05.829Z,9.55
2019-01-29T08:19:02.548Z,10.03
2019-01-29T08:21:59.005Z,13.63
2019-01-29T08:25:01.758Z,8.27
2019-01-29T08:27:51.332Z,8.63
2019-01-29T08:30:48.128Z,7.40
2019-01-29T08:33:44.671Z,10.10
2019-01-29T08:36:41.427Z,8.57
2019-01-29T08:39:43.449Z,7.43
2019-01-29T08:42:41.105Z,8.50
2019-01-29T08:45:37.939Z,6.47
2019-01-29T08:48:34.710Z,9.28
2019-01-29T08:51:30.221Z,10.25
2019-01-29T08:54:26.768Z,7.43
2019-01-29T08:57:34.427Z,8.50
2019-01-29T09:00:42.239Z,7.43
2019-01-29T09:03:39.805Z,5.23
2019-01-29T09:06:35.441Z,7.40
2019-01-29T09:09:31.788Z,8.10
2019-01-29T09:12:27.274Z,7.12
2019-01-29T09:15:25.635Z,7.57
2019-01-29T09:18:21.518Z,7.05
2019-01-29T09:21:19.968Z,6.40
2019-01-29T09:24:17.498Z,5.30
2019-01-29T09:27:13.037Z,5.73
2019-01-29T09:30:09.646Z,7.53
2019-01-29T09:33:06.849Z,6.20
2019-01-29T09:36:03.463Z,5.17
2019-01-29T09:38:59.186Z,5.93
2019-01-29T09:41:54.814Z,7.17
2019-01-29T09:44:51.134Z,4.60
2019-01-29T09:47:48.937Z,5.33
2019-01-29T09:50:44.521Z,9.13
2019-01-29T09:53:41.160Z,5.87
2019-01-29T09:56:49.572Z,5.20
2019-01-29T09:59:56.374Z,5.63
2019-01-29T10:02:53.690Z,6.20
2019-01-29T10:05:49.025Z,5.80
2019-01-29T10:08:45.735Z,5.60
2019-01-29T10:11:41.270Z,5.53
2019-01-29T10:14:38.815Z,5.20
2019-01-29T10:17:35.683Z,4.33
2019-01-29T10:20:32.219Z,5.70
2019-01-29T10:23:27.916Z,4.30
2019-01-29T10:26:24.561Z,6.23
2019-01-29T10:29:20.269Z,5.03
2019-01-29T10:32:16.973Z,4.53
2019-01-29T10:35:13.847Z,4.10
2019-01-29T10:38:10.382Z,5.30
2019-01-29T10:41:07.457Z,4.53
2019-01-29T10:44:06.830Z,5.70
2019-01-29T10:47:05.957Z,4.33
2019-01-29T10:50:07.118Z,4.30
2019-01-29T10:53:16.603Z,4.10
2019-01-29T10:56:12.415Z,2.30
2019-01-29T10:59:09.003Z,2.60
2019-01-29T11:02:04.877Z,4.57
2019-01-29T11:05:02.726Z,2.58
2019-01-29T11:08:05.592Z,3.00
2019-01-29T11:11:08.596Z,2.57
2019-01-29T11:14:06.187Z,5.10
2019-01-29T11:17:03.812Z,3.45
2019-01-29T11:20:00.455Z,6.25
2019-01-29T11:22:55.891Z,4.23
2019-01-29T11:25:56.072Z,7.17
2019-01-29T11:28:59.413Z,5.53
2019-01-29T11:31:54.695Z,4.17
2019-01-29T11:34:51.772Z,4.80
2019-01-29T11:37:47.332Z,3.43
2019-01-29T11:40:44.191Z,2.70
2019-01-29T11:43:41.032Z,4.05
2019-01-29T11:46:37.771Z,3.33
2019-01-29T11:49:34.578Z,5.08
2019-01-29T11:52:30.313Z,3.60
2019-01-29T11:55:26.022Z,3.43
2019-01-29T11:58:21.936Z,6.40
2019-01-29T12:01:20.168Z,4.30
2019-01-29T12:04:16.890Z,3.40
2019-01-29T12:07:13.633Z,2.80
2019-01-29T12:10:10.383Z,4.07
2019-01-29T12:13:05.933Z,5.33
2019-01-29T12:16:03.303Z,4.50
2019-01-29T12:18:59.878Z,3.80
2019-01-29T12:21:56.143Z,4.07
2019-01-29T12:24:51.215Z,3.00
2019-01-29T12:27:47.942Z,2.80
2019-01-29T12:30:44.870Z,4.17
2019-01-29T12:33:41.680Z,4.10
2019-01-29T12:36:40.617Z,3.10
2019-01-29T12:39:36.148Z,3.90
2019-01-29T12:42:32.178Z,5.30
2019-01-29T12:45:27.753Z,4.22
2019-01-29T12:48:25.515Z,4.47
2019-01-29T12:51:29.002Z,4.20
2019-01-29T12:54:25.646Z,5.47
2019-01-29T12:57:22.418Z,4.30
2019-01-29T13:00:19.471Z,5.63
2019-01-29T13:03:25.389Z,3.10
2019-01-29T13:06:22.354Z,5.40
2019-01-29T13:09:18.974Z,5.70
2019-01-29T13:12:14.435Z,3.07
2019-01-29T13:15:11.065Z,5.43
2019-01-29T13:18:07.631Z,2.70
2019-01-29T13:21:04.462Z,12.97
2019-01-29T13:24:01.084Z,3.20
2019-01-29T13:26:57.878Z,4.33
2019-01-29T13:29:54.810Z,3.90
2019-01-29T13:32:55.346Z,5.90
2019-01-29T13:35:53.025Z,3.42
2019-01-29T13:38:55.771Z,5.97
2019-01-29T13:41:51.846Z,10.63
2019-01-29T13:44:51.660Z,3.70
2019-01-29T13:47:48.199Z,3.10
2019-01-29T13:50:47.591Z,8.45
2019-01-29T13:53:44.332Z,3.33
2019-01-29T13:56:51.170Z,4.70
2019-01-29T13:59:46.769Z,4.57
2019-01-29T14:02:43.624Z,8.43
2019-01-29T14:05:39.269Z,4.30
2019-01-29T14:08:36.415Z,5.30
2019-01-29T14:11:33.173Z,5.83
2019-01-29T14:14:29.975Z,3.60
2019-01-29T14:17:24.998Z,6.27
2019-01-29T14:20:25.921Z,6.50
2019-01-29T14:23:20.992Z,3.77
2019-01-29T14:26:17.687Z,3.40
2019-01-29T14:29:13.676Z,6.83
2019-01-29T14:32:10.494Z,3.40
2019-01-29T14:35:06.993Z,5.47
2019-01-29T14:38:37.234Z,7.30
2019-01-29T14:41:33.181Z,4.05
2019-01-29T14:44:42.145Z,5.13
2019-01-29T14:47:37.753Z,5.42
2019-01-29T14:50:35.883Z,3.92
2019-01-29T14:53:31.209Z,5.55
2019-01-29T14:56:28.458Z,5.10
2019-01-29T14:59:25.377Z,3.40
2019-01-29T15:02:22.080Z,3.97
2019-01-29T15:05:18.824Z,7.70
2019-01-29T15:08:15.312Z,5.60
2019-01-29T15:11:12.189Z,3.43
2019-01-29T15:14:07.826Z,3.90
2019-01-29T15:17:14.885Z,5.27
2019-01-29T15:20:12.652Z,3.63
2019-01-29T15:23:08.219Z,5.55
2019-01-29T15:26:05.997Z,3.77
2019-01-29T15:29:08.679Z,3.30
2019-01-29T15:32:13.070Z,5.17
2019-01-29T15:35:08.711Z,8.47
2019-01-29T15:38:06.317Z,5.23
2019-01-29T15:41:02.045Z,14.07
2019-01-29T15:43:57.761Z,8.40
2019-01-29T15:46:53.691Z,4.93
2019-01-29T15:49:50.444Z,14.43
2019-01-29T15:52:48.634Z,6.73
2019-01-29T15:55:42.979Z,7.67
2019-01-29T15:58:41.546Z,8.65
2019-01-29T16:01:38.119Z,9.20
2019-01-29T16:04:34.718Z,8.47
2019-01-29T16:07:30.318Z,11.57
2019-01-29T16:10:26.960Z,6.50
2019-01-29T16:13:22.182Z,8.50
2019-01-29T16:16:19.782Z,7.90
2019-01-29T16:19:17.361Z,7.77
2019-01-29T16:22:13.257Z,7.17
2019-01-29T16:25:10.933Z,12.40
2019-01-29T16:28:06.657Z,13.03
2019-01-29T16:31:03.527Z,9.73
2019-01-29T16:33:59.513Z,13.15
2019-01-29T16:36:56.170Z,8.75
2019-01-29T16:39:52.725Z,13.20
2019-01-29T16:42:49.258Z,7.70
2019-01-29T16:45:47.127Z,9.77
2019-01-29T16:48:58.023Z,12.90
2019-01-29T16:51:58.725Z,10.82
2019-01-29T16:54:54.556Z,11.00
2019-01-29T16:57:53.491Z,8.60
2019-01-29T17:00:51.107Z,12.00
2019-01-29T17:03:48.015Z,11.50
2019-01-29T17:06:43.760Z,13.63
2019-01-29T17:09:41.444Z,7.10
2019-01-29T17:12:37.042Z,7.37
2019-01-29T17:15:35.766Z,12.30
2019-01-29T17:18:32.367Z,8.93
2019-01-29T17:21:28.639Z,12.53
2019-01-29T17:24:24.655Z,8.83
2019-01-29T17:27:23.533Z,11.30
2019-01-29T17:30:21.304Z,10.17
2019-01-29T17:33:17.757Z,8.00
2019-01-29T17:36:20.411Z,8.57
2019-01-29T17:39:28.143Z,36.33
2019-01-29T17:42:23.955Z,91.50
2019-01-29T17:45:19.495Z,56.50
2019-01-29T17:48:16.307Z,72.10
2019-01-29T17:51:13.115Z,18.83
2019-01-29T17:54:09.775Z,22.05
2019-01-29T17:57:06.136Z,15.30
2019-01-29T18:00:05.167Z,13.93
2019-01-29T18:03:02.863Z,11.68
2019-01-29T18:05:58.520Z,9.30
2019-01-29T18:08:54.271Z,14.67
2019-01-29T18:11:49.876Z,15.33
2019-01-29T18:14:46.855Z,9.93
2019-01-29T18:17:44.654Z,10.03
2019-01-29T18:20:41.525Z,15.27
2019-01-29T18:23:38.201Z,12.80
2019-01-29T18:26:37.580Z,10.87
2019-01-29T18:29:36.410Z,9.50
2019-01-29T18:32:33.076Z,11.70
2019-01-29T18:35:29.843Z,10.63
2019-01-29T18:38:29.669Z,11.93
2019-01-29T18:41:27.420Z,13.83
2019-01-29T18:44:23.808Z,10.13
2019-01-29T18:47:18.964Z,11.70
2019-01-29T18:50:15.839Z,11.60
2019-01-29T18:53:12.706Z,9.00
2019-01-29T18:56:09.258Z,9.20
2019-01-29T18:59:04.486Z,13.00
2019-01-29T19:02:06.723Z,18.07
2019-01-29T19:05:04.129Z,24.97
2019-01-29T19:07:59.751Z,26.55
2019-01-29T19:10:55.732Z,22.90
2019-01-29T19:13:50.835Z,16.20
2019-01-29T19:16:48.688Z,15.53
2019-01-29T19:19:44.571Z,15.90
2019-01-29T19:22:42.532Z,15.77
2019-01-29T19:25:38.221Z,12.90
2019-01-29T19:28:34.648Z,13.40
2019-01-29T19:31:31.960Z,12.97
2019-01-29T19:34:26.945Z,13.30
2019-01-29T19:37:23.894Z,16.97
2019-01-29T19:40:19.933Z,14.30
2019-01-29T19:43:17.938Z,16.70
2019-01-29T19:46:24.134Z,12.83
2019-01-29T19:49:32.398Z,11.87
2019-01-29T19:52:29.163Z,10.83
2019-01-29T19:55:25.167Z,12.70
2019-01-29T19:58:31.753Z,14.27
2019-01-29T20:01:17.509Z,11.43
2019-01-29T20:04:15.028Z,11.90
2019-01-29T20:07:10.823Z,11.00
2019-01-29T20:10:07.380Z,8.63
2019-01-29T20:13:04.058Z,8.30
2019-01-29T20:16:02.522Z,9.90
2019-01-29T20:18:58.326Z,23.40
2019-01-29T20:21:55.343Z,14.00
2019-01-29T20:24:52.203Z,9.80
2019-01-29T20:27:47.779Z,13.20
2019-01-29T20:30:46.979Z,14.73
2019-01-29T20:33:48.916Z,11.67
2019-01-29T20:36:46.261Z,8.40
2019-01-29T20:39:44.170Z,11.48
2019-01-29T20:42:41.357Z,11.10
2019-01-29T20:45:37.689Z,10.57
2019-01-29T20:48:33.214Z,8.77
2019-01-29T20:51:30.012Z,8.87
2019-01-29T20:54:24.821Z,14.20
2019-01-29T20:57:21.877Z,11.07
2019-01-29T21:00:17.764Z,8.00
2019-01-29T21:03:15.467Z,12.07
2019-01-29T21:06:13.377Z,12.77
2019-01-29T21:09:10.060Z,12.23
2019-01-29T21:12:06.548Z,14.53
2019-01-29T21:15:03.467Z,8.70
2019-01-29T21:18:00.107Z,9.23
2019-01-29T21:20:57.208Z,13.00
2019-01-29T21:23:52.499Z,14.37
2019-01-29T21:26:48.292Z,15.00
2019-01-29T21:29:45.149Z,12.10
2019-01-29T21:32:41.792Z,18.60
2019-01-29T21:35:37.537Z,14.93
2019-01-29T21:38:34.320Z,15.50
2019-01-29T21:41:29.950Z,12.27
2019-01-29T21:44:26.905Z,11.57
2019-01-29T21:47:27.558Z,10.63
2019-01-29T21:50:27.775Z,8.30
2019-01-29T21:53:25.482Z,12.30
2019-01-29T21:56:28.519Z,10.70
2019-01-29T21:59:26.166Z,11.40
2019-01-29T22:02:40.044Z,9.97
2019-01-29T22:05:36.626Z,10.70
2019-01-29T22:08:33.198Z,10.97
2019-01-29T22:11:30.314Z,11.40
2019-01-29T22:14:26.236Z,11.23
2019-01-29T22:17:22.783Z,9.80
2019-01-29T22:20:19.351Z,10.53
2019-01-29T22:23:14.795Z,10.57
2019-01-29T22:26:13.226Z,11.48
2019-01-29T22:29:08.987Z,11.00
2019-01-29T22:32:06.480Z,13.70
2019-01-29T22:38:12.124Z,12.87
2019-01-29T22:41:08.646Z,12.50
2019-01-29T22:44:05.006Z,12.33
2019-01-29T22:47:01.083Z,10.13
2019-01-29T22:49:57.499Z,8.37
2019-01-29T22:52:54.354Z,9.77
2019-01-29T22:55:50.804Z,9.27
2019-01-29T22:58:47.733Z,12.70
2019-01-29T23:01:58.865Z,12.37
2019-01-29T23:05:01.413Z,11.63
2019-01-29T23:07:57.857Z,11.70
2019-01-29T23:10:54.516Z,9.10
2019-01-29T23:13:52.063Z,9.18
2019-01-29T23:16:50.271Z,10.63
2019-01-29T23:19:46.849Z,9.17
2019-01-29T23:22:41.753Z,12.67
2019-01-29T23:25:37.804Z,10.77
2019-01-29T23:28:34.045Z,10.47
2019-01-29T23:31:30.031Z,13.90
2019-01-29T23:34:26.502Z,10.50
2019-01-29T23:37:23.351Z,9.00
2019-01-29T23:40:19.947Z,11.07
2019-01-29T23:43:15.478Z,9.20
2019-01-29T23:46:13.028Z,8.18
2019-01-29T23:49:08.353Z,9.10
2019-01-29T23:52:05.092Z,10.67
2019-01-29T23:55:00.315Z,13.83
2019-01-29T23:57:58.865Z,10.97
